createdAt,value
2022-08-08T00:00:56.572Z,99695.87
2022-08-08T00:01:19.443Z,99695.22
2022-08-08T00:02:33.357Z,99696.23
2022-08-08T00:03:31.999Z,99694.61
2022-08-08T00:04:31.120Z,99693.77
2022-08-08T00:05:44.144Z,99693.12
2022-08-08T00:06:38.360Z,99688.80
2022-08-08T00:07:41.770Z,99690.02
2022-08-08T00:08:49.160Z,99694.75
2022-08-08T00:09:52.284Z,99688.75
2022-08-08T00:10:53.808Z,99687.09
2022-08-08T00:12:07.641Z,99682.80
2022-08-08T00:13:01.130Z,99690.98
2022-08-08T00:14:17.481Z,99694.48
2022-08-08T00:15:08.834Z,99692.83
2022-08-08T00:16:13.646Z,99685.64
2022-08-08T00:17:23.377Z,99684.81
2022-08-08T00:18:21.446Z,99683.98
2022-08-08T00:19:24.008Z,99686.66
2022-08-08T00:20:26.880Z,99687.48
2022-08-08T00:21:29.855Z,99685.03
2022-08-08T00:22:34.265Z,99693.22
2022-08-08T00:23:42.352Z,99694.23
2022-08-08T00:24:43.290Z,99682.09
2022-08-08T00:25:50.865Z,99687.63
2022-08-08T00:26:52.008Z,99692.16
2022-08-08T00:27:54.676Z,99695.02
2022-08-08T00:28:58.020Z,99688.84
2022-08-08T00:30:00.628Z,99689.85
2022-08-08T00:32:16.286Z,99686.35
2022-08-08T00:32:20.712Z,99685.73
2022-08-08T00:33:12.324Z,99693.75
2022-08-08T00:34:19.870Z,99686.95
2022-08-08T00:35:22.478Z,99687.78
2022-08-08T00:36:25.728Z,99693.30
2022-08-08T00:37:46.848Z,99688.14
2022-08-08T00:38:51.954Z,99696.37
2022-08-08T00:41:09.292Z,99685.86
2022-08-08T00:41:09.466Z,99686.88
2022-08-08T00:41:54.807Z,99695.09
2022-08-08T00:42:51.242Z,99690.94
2022-08-08T00:43:56.341Z,99698.16
2022-08-08T00:44:58.376Z,99692.99
2022-08-08T00:46:00.944Z,99691.98
2022-08-08T00:47:04.637Z,99690.50
2022-08-08T00:48:29.225Z,99694.21
2022-08-08T00:49:22.059Z,99694.21
2022-08-08T00:50:18.480Z,99699.55
2022-08-08T00:51:22.080Z,99700.73
2022-08-08T00:52:29.153Z,99699.11
2022-08-08T00:53:30.996Z,99700.08
2022-08-08T00:54:35.512Z,99703.97
2022-08-08T00:55:53.216Z,99700.65
2022-08-08T00:56:42.756Z,99700.83
2022-08-08T00:57:57.086Z,99698.16
2022-08-08T00:58:54.422Z,99701.87
2022-08-08T00:59:56.235Z,99697.53
2022-08-08T01:00:59.468Z,99696.91
2022-08-08T01:02:03.940Z,99697.27
2022-08-08T01:04:02.093Z,99694.98
2022-08-08T01:04:13.486Z,99700.05
2022-08-08T01:05:29.163Z,99704.11
2022-08-08T01:06:27.750Z,99702.48
2022-08-08T01:07:54.068Z,99698.98
2022-08-08T01:08:31.104Z,99695.48
2022-08-08T01:09:35.111Z,99690.33
2022-08-08T01:10:38.280Z,99695.66
2022-08-08T01:11:42.104Z,99694.21
2022-08-08T01:12:46.853Z,99693.59
2022-08-08T01:13:52.813Z,99688.60
2022-08-08T01:15:00.359Z,99700.31
2022-08-08T01:15:58.240Z,99695.98
2022-08-08T01:17:01.876Z,99697.82
2022-08-08T01:18:06.388Z,99703.16
2022-08-08T01:19:13.690Z,99698.00
2022-08-08T01:20:15.517Z,99692.66
2022-08-08T01:21:34.560Z,99691.03
2022-08-08T01:22:23.564Z,99693.70
2022-08-08T01:24:02.853Z,99695.53
2022-08-08T01:24:31.616Z,99692.21
2022-08-08T01:25:40.283Z,99694.88
2022-08-08T01:26:39.004Z,99697.75
2022-08-08T01:27:44.782Z,99698.58
2022-08-08T01:28:47.957Z,99701.42
2022-08-08T01:29:59.407Z,99693.98
2022-08-08T01:30:57.303Z,99697.86
2022-08-08T01:32:06.727Z,99689.03
2022-08-08T01:33:16.203Z,99687.19
2022-08-08T01:34:10.280Z,99690.69
2022-08-08T01:35:12.959Z,99694.53
2022-08-08T01:36:15.931Z,99691.07
2022-08-08T01:37:21.651Z,99687.58
2022-08-08T01:38:23.008Z,99695.37
2022-08-08T01:39:28.016Z,99696.41
2022-08-08T01:40:31.115Z,99692.70
2022-08-08T01:41:34.457Z,99693.53
2022-08-08T01:42:38.844Z,99695.37
2022-08-08T01:43:42.936Z,99700.70
2022-08-08T01:44:50.587Z,99702.54
2022-08-08T01:45:54.455Z,99699.07
2022-08-08T01:46:54.599Z,99706.23
2022-08-08T01:48:16.469Z,99709.08
2022-08-08T01:49:02.296Z,99703.75
2022-08-08T01:50:07.011Z,99696.58
2022-08-08T01:51:48.684Z,99703.75
2022-08-08T01:53:01.546Z,99703.75
2022-08-08T01:55:15.914Z,99702.75
2022-08-08T01:55:26.745Z,99702.75
2022-08-08T01:56:29.409Z,99702.92
2022-08-08T01:56:34.399Z,99703.95
2022-08-08T01:58:11.950Z,99704.95
2022-08-08T01:58:47.163Z,99704.13
2022-08-08T02:00:00.938Z,99697.97
2022-08-08T02:00:57.588Z,99705.34
2022-08-08T02:02:02.852Z,99707.80
2022-08-08T02:02:59.933Z,99699.80
2022-08-08T02:04:03.120Z,99703.30
2022-08-08T02:05:06.707Z,99702.47
2022-08-08T02:06:10.600Z,99702.47
2022-08-08T02:07:14.970Z,99697.97
2022-08-08T02:08:19.482Z,99697.79
2022-08-08T02:10:02.554Z,99704.95
2022-08-08T02:10:30.005Z,99705.79
2022-08-08T02:11:58.578Z,99697.97
2022-08-08T02:12:35.627Z,99704.13
2022-08-08T02:13:53.942Z,99698.80
2022-08-08T02:14:49.744Z,99706.80
2022-08-08T02:15:48.549Z,99705.79
2022-08-08T02:16:51.833Z,99709.29
2022-08-08T02:17:54.400Z,99709.08
2022-08-08T02:18:58.879Z,99706.23
2022-08-08T02:20:09.831Z,99713.20
2022-08-08T02:21:05.753Z,99713.03
2022-08-08T02:22:10.717Z,99716.53
2022-08-08T02:23:16.351Z,99709.36
2022-08-08T02:24:19.806Z,99708.35
2022-08-08T02:25:23.693Z,99714.31
2022-08-08T02:26:28.292Z,99714.14
2022-08-08T02:27:40.317Z,99717.43
2022-08-08T02:28:35.766Z,99715.59
2022-08-08T02:29:41.511Z,99720.75
2022-08-08T02:30:50.024Z,99719.72
2022-08-08T02:31:58.840Z,99717.70
2022-08-08T02:32:53.071Z,99714.00
2022-08-08T02:34:07.906Z,99724.95
2022-08-08T02:35:07.496Z,99720.33
2022-08-08T02:36:05.672Z,99716.98
2022-08-08T02:37:09.935Z,99719.89
2022-08-08T02:38:13.030Z,99717.05
2022-08-08T02:39:42.267Z,99714.17
2022-08-08T02:40:20.505Z,99719.63
2022-08-08T02:41:58.608Z,99718.68
2022-08-08T02:42:38.163Z,99727.13
2022-08-08T02:44:36.937Z,99724.34
2022-08-08T02:44:56.715Z,99725.09
2022-08-08T02:45:51.464Z,99728.30
2022-08-08T02:46:47.328Z,99721.98
2022-08-08T02:47:54.721Z,99722.05
2022-08-08T02:48:56.252Z,99730.55
2022-08-08T02:50:00.267Z,99726.31
2022-08-08T02:51:02.879Z,99728.69
2022-08-08T02:52:32.401Z,99732.69
2022-08-08T02:53:10.003Z,99728.62
2022-08-08T02:54:14.616Z,99737.90
2022-08-08T02:55:20.566Z,99747.20
2022-08-08T02:56:21.799Z,99738.27
2022-08-08T02:57:25.284Z,99740.86
2022-08-08T02:58:29.755Z,99746.65
2022-08-08T02:59:57.195Z,99742.76
2022-08-08T03:00:37.999Z,99740.08
2022-08-08T03:01:49.897Z,99742.37
2022-08-08T03:02:47.657Z,99736.20
2022-08-08T03:05:04.334Z,99750.06
2022-08-08T03:05:09.023Z,99738.59
2022-08-08T03:06:00.667Z,99754.95
2022-08-08T03:07:07.222Z,99761.79
2022-08-08T03:08:08.872Z,99761.23
2022-08-08T03:09:12.175Z,99762.52
2022-08-08T03:10:17.678Z,99763.56
2022-08-08T03:11:31.750Z,99757.61
2022-08-08T03:12:36.521Z,99760.07
2022-08-08T03:15:53.550Z,99759.41
2022-08-08T03:15:59.074Z,99757.92
2022-08-08T03:16:00.781Z,99757.95
2022-08-08T03:16:43.309Z,99763.77
2022-08-08T03:17:59.884Z,99755.96
2022-08-08T03:18:52.305Z,99762.98
2022-08-08T03:19:54.932Z,99757.01
2022-08-08T03:20:58.045Z,99753.09
2022-08-08T03:22:00.683Z,99759.10
2022-08-08T03:23:04.489Z,99761.77
2022-08-08T03:24:07.753Z,99761.74
2022-08-08T03:25:17.766Z,99760.93
2022-08-08T03:26:14.936Z,99773.70
2022-08-08T03:27:17.504Z,99769.96
2022-08-08T03:28:20.173Z,99763.13
2022-08-08T03:29:38.060Z,99760.87
2022-08-08T03:30:27.311Z,99766.64
2022-08-08T03:31:30.447Z,99767.84
2022-08-08T03:32:34.518Z,99772.58
2022-08-08T03:33:55.190Z,99769.82
2022-08-08T03:34:41.777Z,99767.55
2022-08-08T03:35:44.387Z,99774.52
2022-08-08T03:36:49.002Z,99776.77
2022-08-08T03:38:53.437Z,99777.18
2022-08-08T03:39:15.098Z,99782.11
2022-08-08T03:40:02.419Z,99782.33
2022-08-08T03:41:08.791Z,99787.86
2022-08-08T03:42:28.290Z,99782.91
2022-08-08T03:43:15.584Z,99777.75
2022-08-08T03:44:18.545Z,99784.34
2022-08-08T03:46:07.276Z,99782.25
2022-08-08T03:46:32.397Z,99780.81
2022-08-08T03:47:45.460Z,99788.59
2022-08-08T03:49:32.869Z,99789.00
2022-08-08T03:50:01.172Z,99786.72
2022-08-08T03:50:45.821Z,99784.05
2022-08-08T03:51:51.485Z,99785.67
2022-08-08T03:52:54.558Z,99788.56
2022-08-08T03:53:57.184Z,99791.02
2022-08-08T03:55:10.946Z,99790.19
2022-08-08T03:56:09.583Z,99790.19
2022-08-08T03:58:30.142Z,99793.91
2022-08-08T03:58:34.999Z,99793.91
2022-08-08T03:59:22.697Z,99788.75
2022-08-08T04:00:22.651Z,99794.93
2022-08-08T04:02:02.289Z,99788.56
2022-08-08T04:02:33.058Z,99788.56
2022-08-08T04:04:00.255Z,99791.86
2022-08-08T04:04:41.803Z,99788.16
2022-08-08T04:05:49.953Z,99794.13
2022-08-08T04:06:49.209Z,99789.83
2022-08-08T04:07:52.083Z,99786.93
2022-08-08T04:08:56.083Z,99794.95
2022-08-08T04:10:05.050Z,99796.80
2022-08-08T04:11:11.102Z,99792.28
2022-08-08T04:12:07.783Z,99796.01
2022-08-08T04:13:18.753Z,99798.22
2022-08-08T04:14:34.545Z,99795.55
2022-08-08T04:15:22.252Z,99799.05
2022-08-08T04:16:40.071Z,99801.55
2022-08-08T04:17:57.978Z,99791.45
2022-08-08T04:18:41.917Z,99800.31
2022-08-08T04:19:38.909Z,99802.98
2022-08-08T04:20:41.831Z,99800.95
2022-08-08T04:21:45.794Z,99805.08
2022-08-08T04:22:51.451Z,99805.50
2022-08-08T04:24:11.998Z,99806.58
2022-08-08T04:24:57.659Z,99804.94
2022-08-08T04:26:04.057Z,99800.66
2022-08-08T04:27:10.355Z,99804.37
2022-08-08T04:28:37.027Z,99800.27
2022-08-08T04:29:15.014Z,99804.20
2022-08-08T04:30:20.008Z,99808.73
2022-08-08T04:31:30.894Z,99804.20
2022-08-08T04:32:30.915Z,99806.47
2022-08-08T04:33:31.838Z,99803.45
2022-08-08T04:34:55.365Z,99804.89
2022-08-08T04:35:40.904Z,99809.01
2022-08-08T04:36:45.416Z,99811.09
2022-08-08T04:37:49.286Z,99806.16
2022-08-08T04:39:20.328Z,99809.07
2022-08-08T04:40:06.494Z,99803.11
2022-08-08T04:41:01.709Z,99800.44
2022-08-08T04:42:04.865Z,99807.47
2022-08-08T04:43:08.880Z,99806.64
2022-08-08T04:44:11.784Z,99807.48
2022-08-08T04:45:15.640Z,99797.62
2022-08-08T04:46:18.750Z,99812.88
2022-08-08T04:47:21.632Z,99807.73
2022-08-08T04:48:26.044Z,99809.58
2022-08-08T04:50:00.645Z,99809.58
2022-08-08T04:50:38.264Z,99810.66
2022-08-08T04:51:57.088Z,99809.82
2022-08-08T04:52:42.748Z,99810.64
2022-08-08T04:54:36.619Z,99811.06
2022-08-08T04:54:51.689Z,99811.27
2022-08-08T04:55:55.984Z,99810.83
2022-08-08T04:56:59.138Z,99816.61
2022-08-08T04:58:01.800Z,99812.45
2022-08-08T04:59:04.519Z,99813.88
2022-08-08T05:00:07.896Z,99811.41
2022-08-08T05:01:12.381Z,99813.23
2022-08-08T05:02:15.363Z,99817.37
2022-08-08T05:04:08.238Z,99818.60
2022-08-08T05:04:24.337Z,99813.60
2022-08-08T05:05:45.181Z,99815.02
2022-08-08T05:06:33.333Z,99814.78
2022-08-08T05:07:42.644Z,99821.55
2022-08-08T05:08:42.219Z,99817.58
2022-08-08T05:09:44.840Z,99820.41
2022-08-08T05:10:47.900Z,99824.07
2022-08-08T05:11:56.978Z,99821.11
2022-08-08T05:13:01.811Z,99824.31
2022-08-08T05:14:02.131Z,99828.72
2022-08-08T05:15:04.494Z,99816.97
2022-08-08T05:16:53.573Z,99834.22
2022-08-08T05:17:13.134Z,99817.05
2022-08-08T05:18:17.605Z,99819.73
2022-08-08T05:20:09.607Z,99818.31
2022-08-08T05:20:24.815Z,99826.41
2022-08-08T05:21:29.647Z,99820.04
2022-08-08T05:22:34.171Z,99828.76
2022-08-08T05:23:41.208Z,99823.09
2022-08-08T05:24:41.344Z,99818.56
2022-08-08T05:25:46.829Z,99821.69
2022-08-08T05:26:49.856Z,99826.52
2022-08-08T05:27:54.780Z,99821.88
2022-08-08T05:29:04.757Z,99824.80
2022-08-08T05:30:01.613Z,99827.41
2022-08-08T05:31:19.340Z,99830.70
2022-08-08T05:32:12.583Z,99829.84
2022-08-08T05:33:16.923Z,99824.02
2022-08-08T05:34:20.715Z,99828.22
2022-08-08T05:35:23.749Z,99823.03
2022-08-08T05:36:27.992Z,99832.25
2022-08-08T05:37:49.189Z,99828.80
2022-08-08T05:38:35.504Z,99832.27
2022-08-08T05:39:38.237Z,99824.70
2022-08-08T05:40:41.449Z,99829.46
2022-08-08T05:41:54.814Z,99829.88
2022-08-08T05:42:49.116Z,99825.13
2022-08-08T05:44:04.205Z,99828.75
2022-08-08T05:45:00.479Z,99838.58
2022-08-08T05:46:03.282Z,99828.48
2022-08-08T05:47:05.544Z,99828.86
2022-08-08T05:48:09.914Z,99832.91
2022-08-08T05:49:12.846Z,99825.55
2022-08-08T05:50:17.773Z,99830.43
2022-08-08T05:51:20.328Z,99827.36
2022-08-08T05:52:35.576Z,99823.83
2022-08-08T05:54:25.661Z,99834.64
2022-08-08T05:54:50.927Z,99823.94
2022-08-08T05:56:10.002Z,99832.02
2022-08-08T05:56:42.169Z,99824.00
2022-08-08T05:58:05.626Z,99826.37
2022-08-08T05:58:57.020Z,99827.64
2022-08-08T06:00:22.883Z,99831.07
2022-08-08T06:00:59.201Z,99827.94
2022-08-08T06:02:01.871Z,99827.71
2022-08-08T06:03:04.567Z,99832.08
2022-08-08T06:04:13.537Z,99829.75
2022-08-08T06:05:33.335Z,99829.81
2022-08-08T06:06:18.002Z,99823.58
2022-08-08T06:07:22.269Z,99829.06
2022-08-08T06:08:33.248Z,99832.65
2022-08-08T06:09:41.836Z,99831.01
2022-08-08T06:10:35.019Z,99831.25
2022-08-08T06:11:45.761Z,99829.88
2022-08-08T06:12:43.816Z,99829.31
2022-08-08T06:13:49.297Z,99827.06
2022-08-08T06:14:52.023Z,99829.21
2022-08-08T06:15:56.432Z,99833.59
2022-08-08T06:16:59.519Z,99832.75
2022-08-08T06:18:20.009Z,99832.45
2022-08-08T06:19:07.247Z,99831.88
2022-08-08T06:20:11.652Z,99840.11
2022-08-08T06:21:32.342Z,99829.16
2022-08-08T06:22:35.622Z,99834.61
2022-08-08T06:23:29.177Z,99838.42
2022-08-08T06:24:31.027Z,99831.58
2022-08-08T06:26:35.927Z,99831.24
2022-08-08T06:26:44.411Z,99821.41
2022-08-08T06:27:47.588Z,99832.30
2022-08-08T06:28:47.469Z,99827.11
2022-08-08T06:29:59.955Z,99829.72
2022-08-08T06:30:56.352Z,99826.33
2022-08-08T06:32:09.824Z,99829.22
2022-08-08T06:33:04.744Z,99820.95
2022-08-08T06:34:25.805Z,99831.00
2022-08-08T06:36:06.431Z,99825.16
2022-08-08T06:36:18.797Z,99830.12
2022-08-08T06:37:24.940Z,99831.88
2022-08-08T06:38:28.830Z,99829.33
2022-08-08T06:39:33.400Z,99824.70
2022-08-08T06:40:36.908Z,99828.63
2022-08-08T06:41:39.981Z,99822.11
2022-08-08T06:42:43.823Z,99819.73
2022-08-08T06:43:47.597Z,99822.62
2022-08-08T06:44:50.898Z,99828.13
2022-08-08T06:45:53.776Z,99819.92
2022-08-08T06:46:57.259Z,99815.78
2022-08-08T06:48:01.917Z,99821.84
2022-08-08T06:49:04.440Z,99822.89
2022-08-08T06:50:08.957Z,99823.91
2022-08-08T06:51:13.676Z,99820.83
2022-08-08T06:52:18.109Z,99823.75
2022-08-08T06:53:20.974Z,99829.91
2022-08-08T06:54:23.628Z,99822.38
2022-08-08T06:55:27.450Z,99828.27
2022-08-08T06:56:30.965Z,99828.77
2022-08-08T06:57:44.483Z,99829.31
2022-08-08T06:58:39.987Z,99829.31
2022-08-08T07:00:10.743Z,99834.84
2022-08-08T07:00:48.856Z,99826.57
2022-08-08T07:02:28.039Z,99826.00
2022-08-08T07:02:56.156Z,99835.90
2022-08-08T07:04:37.356Z,99831.23
2022-08-08T07:05:04.916Z,99830.70
2022-08-08T07:06:08.379Z,99826.66
2022-08-08T07:07:12.229Z,99828.34
2022-08-08T07:08:16.621Z,99826.84
2022-08-08T07:09:21.032Z,99828.30
2022-08-08T07:10:24.205Z,99826.48
2022-08-08T07:11:26.812Z,99822.68
2022-08-08T07:12:31.231Z,99824.27
2022-08-08T07:13:34.720Z,99827.98
2022-08-08T07:14:39.327Z,99827.91
2022-08-08T07:16:06.229Z,99820.58
2022-08-08T07:16:54.039Z,99827.91
2022-08-08T07:18:01.548Z,99824.44
2022-08-08T07:18:57.528Z,99820.82
2022-08-08T07:20:00.558Z,99832.04
2022-08-08T07:21:04.776Z,99823.75
2022-08-08T07:22:18.328Z,99822.61
2022-08-08T07:23:12.414Z,99828.16
2022-08-08T07:24:16.866Z,99816.92
2022-08-08T07:25:19.576Z,99822.55
2022-08-08T07:26:28.980Z,99813.98
2022-08-08T07:27:27.748Z,99821.36
2022-08-08T07:28:31.981Z,99818.47
2022-08-08T07:29:59.064Z,99818.35
2022-08-08T07:30:39.296Z,99816.42
2022-08-08T07:31:41.905Z,99814.30
2022-08-08T07:32:44.874Z,99817.30
2022-08-08T07:33:58.931Z,99825.03
2022-08-08T07:35:00.475Z,99816.02
2022-08-08T07:35:58.206Z,99810.49
2022-08-08T07:37:01.491Z,99808.29
2022-08-08T07:38:18.485Z,99812.67
2022-08-08T07:39:10.861Z,99810.98
2022-08-08T07:40:28.911Z,99811.37
2022-08-08T07:41:23.538Z,99814.56
2022-08-08T07:42:25.885Z,99812.93
2022-08-08T07:43:36.828Z,99825.48
2022-08-08T07:44:37.226Z,99820.73
2022-08-08T07:45:51.468Z,99820.95
2022-08-08T07:46:43.061Z,99818.94
2022-08-08T07:47:45.857Z,99821.03
2022-08-08T07:48:50.268Z,99822.64
2022-08-08T07:49:54.003Z,99826.23
2022-08-08T07:50:56.982Z,99816.88
2022-08-08T07:51:59.544Z,99828.98
2022-08-08T07:53:04.142Z,99831.48
2022-08-08T07:54:06.688Z,99818.87
2022-08-08T07:55:09.296Z,99826.27
2022-08-08T07:56:12.819Z,99823.77
2022-08-08T07:57:17.040Z,99822.60
2022-08-08T07:58:19.983Z,99821.44
2022-08-08T07:59:23.209Z,99824.88
2022-08-08T08:00:25.915Z,99822.21
2022-08-08T08:02:32.759Z,99821.68
2022-08-08T08:02:38.565Z,99822.21
2022-08-08T08:03:43.757Z,99820.80
2022-08-08T08:04:42.942Z,99826.80
2022-08-08T08:05:50.912Z,99823.39
2022-08-08T08:06:50.663Z,99825.20
2022-08-08T08:07:54.809Z,99827.88
2022-08-08T08:08:57.724Z,99825.08
2022-08-08T08:10:00.384Z,99829.50
2022-08-08T08:11:04.861Z,99823.24
2022-08-08T08:12:07.479Z,99822.17
2022-08-08T08:13:17.666Z,99819.80
2022-08-08T08:14:16.491Z,99823.77
2022-08-08T08:15:19.058Z,99826.83
2022-08-08T08:16:23.981Z,99816.87
2022-08-08T08:17:36.469Z,99824.03
2022-08-08T08:18:32.086Z,99819.17
2022-08-08T08:19:45.377Z,99816.38
2022-08-08T08:20:39.979Z,99821.44
2022-08-08T08:21:52.526Z,99818.41
2022-08-08T08:22:47.735Z,99811.51
2022-08-08T08:23:50.987Z,99819.97
2022-08-08T08:24:54.034Z,99820.80
2022-08-08T08:25:58.601Z,99823.55
2022-08-08T08:27:03.632Z,99819.52
2022-08-08T08:28:09.214Z,99815.41
2022-08-08T08:29:13.864Z,99813.78
2022-08-08T08:30:16.910Z,99817.34
2022-08-08T08:31:19.574Z,99813.47
2022-08-08T08:32:35.741Z,99812.53
2022-08-08T08:33:26.961Z,99823.41
2022-08-08T08:34:32.504Z,99821.27
2022-08-08T08:36:18.470Z,99820.88
2022-08-08T08:36:38.614Z,99816.77
2022-08-08T08:38:12.869Z,99826.80
2022-08-08T08:38:49.326Z,99819.53
2022-08-08T08:40:00.995Z,99818.52
2022-08-08T08:40:55.538Z,99813.88
2022-08-08T08:41:58.876Z,99815.69
2022-08-08T08:43:02.964Z,99813.58
2022-08-08T08:44:13.232Z,99817.14
2022-08-08T08:45:22.792Z,99817.27
2022-08-08T08:46:17.721Z,99811.21
2022-08-08T08:47:20.197Z,99818.13
2022-08-08T08:48:24.417Z,99819.53
2022-08-08T08:49:33.510Z,99817.06
2022-08-08T08:50:34.875Z,99818.27
2022-08-08T08:51:37.804Z,99812.34
2022-08-08T08:52:48.881Z,99815.02
2022-08-08T08:53:56.562Z,99815.05
2022-08-08T08:54:50.206Z,99813.56
2022-08-08T08:55:54.615Z,99814.03
2022-08-08T08:56:57.837Z,99815.83
2022-08-08T08:58:00.507Z,99805.01
2022-08-08T08:59:03.753Z,99809.87
2022-08-08T09:00:15.583Z,99811.98
2022-08-08T09:01:13.452Z,99815.29
2022-08-08T09:02:17.523Z,99816.02
2022-08-08T09:03:22.215Z,99811.89
2022-08-08T09:04:30.309Z,99813.88
2022-08-08T09:05:54.051Z,99811.84
2022-08-08T09:06:35.789Z,99810.63
2022-08-08T09:07:39.028Z,99815.52
2022-08-08T09:08:42.971Z,99808.77
2022-08-08T09:09:48.217Z,99811.30
2022-08-08T09:10:52.221Z,99806.56
2022-08-08T09:12:02.023Z,99809.59
2022-08-08T09:12:59.586Z,99811.52
2022-08-08T09:14:02.565Z,99813.06
2022-08-08T09:15:06.189Z,99800.92
2022-08-08T09:16:09.377Z,99810.77
2022-08-08T09:17:18.301Z,99801.55
2022-08-08T09:18:18.319Z,99798.24
2022-08-08T09:19:39.386Z,99805.97
2022-08-08T09:22:01.009Z,99799.36
2022-08-08T09:22:01.645Z,99798.44
2022-08-08T09:22:35.641Z,99800.88
2022-08-08T09:23:40.758Z,99801.36
2022-08-08T09:24:43.420Z,99797.41
2022-08-08T09:25:54.800Z,99795.44
2022-08-08T09:26:52.070Z,99799.05
2022-08-08T09:27:56.636Z,99805.75
2022-08-08T09:28:59.287Z,99797.88
2022-08-08T09:30:03.805Z,99794.89
2022-08-08T09:31:12.374Z,99796.73
2022-08-08T09:32:14.528Z,99794.41
2022-08-08T09:34:06.327Z,99793.75
2022-08-08T09:34:32.293Z,99800.66
2022-08-08T09:35:31.976Z,99797.55
2022-08-08T09:36:30.319Z,99799.99
2022-08-08T09:38:00.706Z,99800.86
2022-08-08T09:38:53.265Z,99805.00
2022-08-08T09:39:44.421Z,99806.27
2022-08-08T09:40:52.573Z,99806.34
2022-08-08T09:42:14.174Z,99810.14
2022-08-08T09:42:57.599Z,99803.11
2022-08-08T09:44:06.397Z,99807.83
2022-08-08T09:45:08.165Z,99808.38
2022-08-08T09:46:11.172Z,99796.17
2022-08-08T09:47:26.622Z,99810.73
2022-08-08T09:48:23.645Z,99806.37
2022-08-08T09:49:42.441Z,99805.28
2022-08-08T09:50:34.463Z,99799.15
2022-08-08T09:52:01.456Z,99806.39
2022-08-08T09:52:58.271Z,99803.78
2022-08-08T09:53:54.886Z,99797.70
2022-08-08T09:54:49.632Z,99799.55
2022-08-08T09:56:05.108Z,99798.28
2022-08-08T09:56:58.760Z,99798.64
2022-08-08T09:58:03.376Z,99808.56
2022-08-08T09:59:40.441Z,99800.48
2022-08-08T10:00:36.023Z,99799.23
2022-08-08T10:01:59.072Z,99805.81
2022-08-08T10:02:24.465Z,99799.45
2022-08-08T10:03:31.586Z,99808.80
2022-08-08T10:04:41.948Z,99808.11
2022-08-08T10:05:39.855Z,99804.05
2022-08-08T10:06:45.099Z,99802.02
2022-08-08T10:07:48.699Z,99800.85
2022-08-08T10:08:51.736Z,99801.09
2022-08-08T10:09:59.225Z,99797.77
2022-08-08T10:10:59.889Z,99797.17
2022-08-08T10:12:25.743Z,99796.73
2022-08-08T10:13:14.759Z,99803.09
2022-08-08T10:14:28.469Z,99796.69
2022-08-08T10:15:17.646Z,99793.52
2022-08-08T10:16:21.379Z,99790.27
2022-08-08T10:18:05.898Z,99793.97
2022-08-08T10:18:30.812Z,99790.42
2022-08-08T10:19:38.305Z,99801.38
2022-08-08T10:20:44.418Z,99795.17
2022-08-08T10:21:50.966Z,99798.36
2022-08-08T10:22:55.098Z,99801.34
2022-08-08T10:23:59.038Z,99798.33
2022-08-08T10:25:00.123Z,99802.13
2022-08-08T10:26:03.263Z,99796.92
2022-08-08T10:27:06.364Z,99793.80
2022-08-08T10:28:15.087Z,99797.06
2022-08-08T10:29:21.129Z,99790.31
2022-08-08T10:31:00.483Z,99789.05
2022-08-08T10:31:47.040Z,99793.50
2022-08-08T10:32:30.263Z,99796.36
2022-08-08T10:33:38.270Z,99791.75
2022-08-08T10:34:38.854Z,99790.70
2022-08-08T10:36:09.181Z,99791.17
2022-08-08T10:36:46.447Z,99792.06
2022-08-08T10:37:49.317Z,99784.16
2022-08-08T10:38:53.787Z,99789.14
2022-08-08T10:39:58.096Z,99785.45
2022-08-08T10:41:01.737Z,99790.92
2022-08-08T10:42:14.837Z,99784.62
2022-08-08T10:43:10.764Z,99790.05
2022-08-08T10:44:13.421Z,99784.41
2022-08-08T10:45:18.016Z,99785.70
2022-08-08T10:46:29.730Z,99791.67
2022-08-08T10:47:26.045Z,99773.57
2022-08-08T10:48:30.552Z,99776.09
2022-08-08T10:50:01.418Z,99788.45
2022-08-08T10:50:38.552Z,99777.97
2022-08-08T10:51:50.907Z,99781.62
2022-08-08T10:52:47.376Z,99784.61
2022-08-08T10:53:57.844Z,99778.98
2022-08-08T10:54:54.761Z,99779.97
2022-08-08T10:55:57.283Z,99775.39
2022-08-08T10:57:00.375Z,99779.63
2022-08-08T10:58:02.922Z,99780.58
2022-08-08T10:59:07.476Z,99775.13
2022-08-08T11:00:10.826Z,99776.64
2022-08-08T11:01:15.779Z,99773.78
2022-08-08T11:02:18.662Z,99769.52
2022-08-08T11:03:52.498Z,99771.50
2022-08-08T11:04:29.575Z,99779.56
2022-08-08T11:05:38.289Z,99776.54
2022-08-08T11:06:36.717Z,99772.73
2022-08-08T11:08:36.901Z,99772.72
2022-08-08T11:08:50.099Z,99777.97
2022-08-08T11:09:50.410Z,99782.67
2022-08-08T11:10:53.541Z,99771.44
2022-08-08T11:12:05.287Z,99771.00
2022-08-08T11:14:06.555Z,99770.59
2022-08-08T11:15:09.122Z,99770.15
2022-08-08T11:16:32.326Z,99771.42
2022-08-08T11:17:17.429Z,99773.36
2022-08-08T11:18:21.840Z,99774.32
2022-08-08T11:19:24.423Z,99769.36
2022-08-08T11:20:28.568Z,99764.98
2022-08-08T11:21:35.197Z,99767.92
2022-08-08T11:22:35.998Z,99761.16
2022-08-08T11:23:40.416Z,99765.08
2022-08-08T11:24:43.179Z,99773.98
2022-08-08T11:25:52.435Z,99759.84
2022-08-08T11:26:56.711Z,99762.92
2022-08-08T11:27:56.998Z,99755.46
2022-08-08T11:29:00.664Z,99756.33
2022-08-08T11:30:19.381Z,99760.39
2022-08-08T11:31:08.712Z,99757.71
2022-08-08T11:32:13.237Z,99760.59
2022-08-08T11:33:16.310Z,99763.53
2022-08-08T11:34:24.143Z,99758.27
2022-08-08T11:35:42.705Z,99753.54
2022-08-08T11:36:30.782Z,99759.42
2022-08-08T11:38:36.497Z,99758.52
2022-08-08T11:38:53.719Z,99761.57
2022-08-08T11:39:43.307Z,99765.11
2022-08-08T11:40:51.680Z,99760.97
2022-08-08T11:41:52.532Z,99756.05
2022-08-08T11:42:55.389Z,99761.11
2022-08-08T11:43:58.672Z,99756.02
2022-08-08T11:45:03.084Z,99753.99
2022-08-08T11:47:18.164Z,99762.20
2022-08-08T11:48:22.766Z,99759.81
2022-08-08T11:49:27.684Z,99759.03
2022-08-08T11:50:31.312Z,99760.41
2022-08-08T11:51:39.951Z,99755.72
2022-08-08T11:52:43.851Z,99753.88
2022-08-08T11:53:50.603Z,99763.73
2022-08-08T11:54:49.536Z,99759.03
2022-08-08T11:55:52.304Z,99758.63
2022-08-08T11:56:56.100Z,99758.05
2022-08-08T11:58:04.155Z,99758.88
2022-08-08T11:59:04.307Z,99763.51
2022-08-08T12:00:09.806Z,99765.94
2022-08-08T12:01:17.051Z,99759.33
2022-08-08T12:02:31.761Z,99763.43
2022-08-08T12:03:22.632Z,99757.89
2022-08-08T12:04:26.260Z,99755.27
2022-08-08T12:05:31.233Z,99758.66
2022-08-08T12:06:36.093Z,99759.84
2022-08-08T12:07:40.545Z,99761.28
2022-08-08T12:08:43.172Z,99757.73
2022-08-08T12:09:56.593Z,99755.84
2022-08-08T12:10:52.300Z,99755.92
2022-08-08T12:11:55.338Z,99763.61
2022-08-08T12:12:58.152Z,99759.33
2022-08-08T12:14:03.907Z,99752.17
2022-08-08T12:15:05.266Z,99756.08
2022-08-08T12:16:10.592Z,99751.36
2022-08-08T12:17:13.231Z,99757.70
2022-08-08T12:18:20.786Z,99755.08
2022-08-08T12:19:22.028Z,99754.96
2022-08-08T12:20:27.372Z,99754.11
2022-08-08T12:21:59.312Z,99759.95
2022-08-08T12:22:39.689Z,99762.20
2022-08-08T12:23:43.174Z,99760.34
2022-08-08T12:24:51.550Z,99754.64
2022-08-08T12:25:52.681Z,99759.20
2022-08-08T12:26:54.088Z,99753.81
2022-08-08T12:27:59.174Z,99760.08
2022-08-08T12:29:02.356Z,99758.33
2022-08-08T12:30:15.992Z,99751.39
2022-08-08T12:31:10.153Z,99755.11
2022-08-08T12:32:13.638Z,99757.94
2022-08-08T12:33:17.132Z,99752.40
2022-08-08T12:34:21.250Z,99756.92